sensor_id;sensor_type;location;lat;lon;timestamp;P1;P2;P0
57884;PMS5003;43703;51.060;-0.086;2022-12-15T00:01:23;28;23;
57884;PMS5003;43703;51.060;-0.086;2022-12-15T00:03:49;32;28;
57884;PMS5003;43703;51.060;-0.086;2022-12-15T00:06:14;24;22;
57884;PMS5003;43703;51.060;-0.086;2022-12-15T00:08:40;30;28;
57884;PMS5003;43703;51.060;-0.086;2022-12-15T00:11:05;32;28;
57884;PMS5003;43703;51.060;-0.086;2022-12-15T00:13:31;23;22;
57884;PMS5003;43703;51.060;-0.086;2022-12-15T00:15:56;23;22;
57884;PMS5003;43703;51.060;-0.086;2022-12-15T00:18:22;29;26;
57884;PMS5003;43703;51.060;-0.086;2022-12-15T00:20:48;29;26;
57884;PMS5003;43703;51.060;-0.086;2022-12-15T00:23:13;29;28;
57884;PMS5003;43703;51.060;-0.086;2022-12-15T00:25:37;37;31;
57884;PMS5003;43703;51.060;-0.086;2022-12-15T00:28:03;25;25;
57884;PMS5003;43703;51.060;-0.086;2022-12-15T00:30:29;30;27;
57884;PMS5003;43703;51.060;-0.086;2022-12-15T00:32:54;30;27;
57884;PMS5003;43703;51.060;-0.086;2022-12-15T00:35:20;27;27;
57884;PMS5003;43703;51.060;-0.086;2022-12-15T00:37:45;28;27;
57884;PMS5003;43703;51.060;-0.086;2022-12-15T00:40:11;29;26;
57884;PMS5003;43703;51.060;-0.086;2022-12-15T00:42:39;28;25;
57884;PMS5003;43703;51.060;-0.086;2022-12-15T00:45:02;28;24;
57884;PMS5003;43703;51.060;-0.086;2022-12-15T00:47:30;25;25;
57884;PMS5003;43703;51.060;-0.086;2022-12-15T00:49:53;23;21;
57884;PMS5003;43703;51.060;-0.086;2022-12-15T00:52:19;26;24;
57884;PMS5003;43703;51.060;-0.086;2022-12-15T00:54:44;23;21;
57884;PMS5003;43703;51.060;-0.086;2022-12-15T00:57:09;26;23;
57884;PMS5003;43703;51.060;-0.086;2022-12-15T00:59:35;26;23;
57884;PMS5003;43703;51.060;-0.086;2022-12-15T01:02:01;27;24;
57884;PMS5003;43703;51.060;-0.086;2022-12-15T01:04:27;26;26;
57884;PMS5003;43703;51.060;-0.086;2022-12-15T01:06:52;29;28;
57884;PMS5003;43703;51.060;-0.086;2022-12-15T01:09:17;24;24;
57884;PMS5003;43703;51.060;-0.086;2022-12-15T01:11:43;26;23;
57884;PMS5003;43703;51.060;-0.086;2022-12-15T01:14:09;29;27;
57884;PMS5003;43703;51.060;-0.086;2022-12-15T01:16:34;30;26;
57884;PMS5003;43703;51.060;-0.086;2022-12-15T01:19:00;27;27;
57884;PMS5003;43703;51.060;-0.086;2022-12-15T01:21:25;24;24;
57884;PMS5003;43703;51.060;-0.086;2022-12-15T01:23:51;33;29;
57884;PMS5003;43703;51.060;-0.086;2022-12-15T01:26:16;34;31;
57884;PMS5003;43703;51.060;-0.086;2022-12-15T01:28:42;26;23;
57884;PMS5003;43703;51.060;-0.086;2022-12-15T01:31:09;28;25;
57884;PMS5003;43703;51.060;-0.086;2022-12-15T01:33:33;24;23;
57884;PMS5003;43703;51.060;-0.086;2022-12-15T01:35:59;24;23;
57884;PMS5003;43703;51.060;-0.086;2022-12-15T01:38:24;25;23;
57884;PMS5003;43703;51.060;-0.086;2022-12-15T01:40:50;25;24;
57884;PMS5003;43703;51.060;-0.086;2022-12-15T01:43:15;26;22;
57884;PMS5003;43703;51.060;-0.086;2022-12-15T01:45:45;22;22;
57884;PMS5003;43703;51.060;-0.086;2022-12-15T01:48:06;30;28;
57884;PMS5003;43703;51.060;-0.086;2022-12-15T01:50:31;27;22;
57884;PMS5003;43703;51.060;-0.086;2022-12-15T01:52:56;28;26;
57884;PMS5003;43703;51.060;-0.086;2022-12-15T01:55:23;25;23;
57884;PMS5003;43703;51.060;-0.086;2022-12-15T01:57:48;29;29;
57884;PMS5003;43703;51.060;-0.086;2022-12-15T02:00:13;24;24;
57884;PMS5003;43703;51.060;-0.086;2022-12-15T02:02:39;24;23;
57884;PMS5003;43703;51.060;-0.086;2022-12-15T02:05:04;30;28;
57884;PMS5003;43703;51.060;-0.086;2022-12-15T02:07:29;33;25;
57884;PMS5003;43703;51.060;-0.086;2022-12-15T02:09:56;27;24;
57884;PMS5003;43703;51.060;-0.086;2022-12-15T02:12:23;28;25;
57884;PMS5003;43703;51.060;-0.086;2022-12-15T02:14:48;24;23;
57884;PMS5003;43703;51.060;-0.086;2022-12-15T02:17:13;28;23;
57884;PMS5003;43703;51.060;-0.086;2022-12-15T02:19:46;33;25;
57884;PMS5003;43703;51.060;-0.086;2022-12-15T02:22:05;26;25;
57884;PMS5003;43703;51.060;-0.086;2022-12-15T02:29:23;28;28;
57884;PMS5003;43703;51.060;-0.086;2022-12-15T02:31:43;25;24;
57884;PMS5003;43703;51.060;-0.086;2022-12-15T02:34:09;27;26;
57884;PMS5003;43703;51.060;-0.086;2022-12-15T02:36:34;29;24;
57884;PMS5003;43703;51.060;-0.086;2022-12-15T02:38:58;28;26;
57884;PMS5003;43703;51.060;-0.086;2022-12-15T02:41:31;32;29;
57884;PMS5003;43703;51.060;-0.086;2022-12-15T02:43:49;25;24;
57884;PMS5003;43703;51.060;-0.086;2022-12-15T02:46:16;33;27;
57884;PMS5003;43703;51.060;-0.086;2022-12-15T02:48:43;24;21;
57884;PMS5003;43703;51.060;-0.086;2022-12-15T02:51:10;24;23;
57884;PMS5003;43703;51.060;-0.086;2022-12-15T02:53:37;25;24;
57884;PMS5003;43703;51.060;-0.086;2022-12-15T02:55:58;26;24;
57884;PMS5003;43703;51.060;-0.086;2022-12-15T02:58:26;26;24;
57884;PMS5003;43703;51.060;-0.086;2022-12-15T03:00:49;28;26;
57884;PMS5003;43703;51.060;-0.086;2022-12-15T03:03:15;28;28;
57884;PMS5003;43703;51.060;-0.086;2022-12-15T03:05:39;30;30;
57884;PMS5003;43703;51.060;-0.086;2022-12-15T03:08:05;25;25;
57884;PMS5003;43703;51.060;-0.086;2022-12-15T03:10:30;27;25;
57884;PMS5003;43703;51.060;-0.086;2022-12-15T03:12:55;22;22;
57884;PMS5003;43703;51.060;-0.086;2022-12-15T03:15:21;28;26;
57884;PMS5003;43703;51.060;-0.086;2022-12-15T03:17:46;29;24;
57884;PMS5003;43703;51.060;-0.086;2022-12-15T03:20:11;25;25;
57884;PMS5003;43703;51.060;-0.086;2022-12-15T03:22:37;31;26;
57884;PMS5003;43703;51.060;-0.086;2022-12-15T03:25:03;24;24;
57884;PMS5003;43703;51.060;-0.086;2022-12-15T03:27:28;23;23;
57884;PMS5003;43703;51.060;-0.086;2022-12-15T03:29:54;25;24;
57884;PMS5003;43703;51.060;-0.086;2022-12-15T03:32:20;21;20;
57884;PMS5003;43703;51.060;-0.086;2022-12-15T03:34:45;23;21;
57884;PMS5003;43703;51.060;-0.086;2022-12-15T03:37:11;24;23;
57884;PMS5003;43703;51.060;-0.086;2022-12-15T03:39:36;28;25;
57884;PMS5003;43703;51.060;-0.086;2022-12-15T03:42:01;26;24;
57884;PMS5003;43703;51.060;-0.086;2022-12-15T03:44:27;28;26;
57884;PMS5003;43703;51.060;-0.086;2022-12-15T03:46:52;23;23;
57884;PMS5003;43703;51.060;-0.086;2022-12-15T03:49:17;23;23;
57884;PMS5003;43703;51.060;-0.086;2022-12-15T03:51:43;26;23;
57884;PMS5003;43703;51.060;-0.086;2022-12-15T03:54:08;23;23;
57884;PMS5003;43703;51.060;-0.086;2022-12-15T03:56:33;27;24;
57884;PMS5003;43703;51.060;-0.086;2022-12-15T03:58:58;31;29;
57884;PMS5003;43703;51.060;-0.086;2022-12-15T04:01:25;30;25;
57884;PMS5003;43703;51.060;-0.086;2022-12-15T04:03:50;28;24;
57884;PMS5003;43703;51.060;-0.086;2022-12-15T04:06:15;23;23;
57884;PMS5003;43703;51.060;-0.086;2022-12-15T04:08:41;24;22;
57884;PMS5003;43703;51.060;-0.086;2022-12-15T04:11:06;25;22;
57884;PMS5003;43703;51.060;-0.086;2022-12-15T04:13:31;22;20;
57884;PMS5003;43703;51.060;-0.086;2022-12-15T04:15:59;25;22;
57884;PMS5003;43703;51.060;-0.086;2022-12-15T04:18:22;25;23;
57884;PMS5003;43703;51.060;-0.086;2022-12-15T04:20:47;25;24;
57884;PMS5003;43703;51.060;-0.086;2022-12-15T04:23:13;22;22;
57884;PMS5003;43703;51.060;-0.086;2022-12-15T04:25:38;24;22;
57884;PMS5003;43703;51.060;-0.086;2022-12-15T04:28:04;27;26;
57884;PMS5003;43703;51.060;-0.086;2022-12-15T04:30:29;24;21;
57884;PMS5003;43703;51.060;-0.086;2022-12-15T04:32:55;25;25;
57884;PMS5003;43703;51.060;-0.086;2022-12-15T04:35:20;21;21;
57884;PMS5003;43703;51.060;-0.086;2022-12-15T04:37:45;25;21;
57884;PMS5003;43703;51.060;-0.086;2022-12-15T04:40:10;23;22;
57884;PMS5003;43703;51.060;-0.086;2022-12-15T04:42:36;22;22;
57884;PMS5003;43703;51.060;-0.086;2022-12-15T04:45:02;29;26;
57884;PMS5003;43703;51.060;-0.086;2022-12-15T04:47:26;25;24;
57884;PMS5003;43703;51.060;-0.086;2022-12-15T04:49:52;26;23;
57884;PMS5003;43703;51.060;-0.086;2022-12-15T04:54:47;26;20;
57884;PMS5003;43703;51.060;-0.086;2022-12-15T04:57:13;21;21;
57884;PMS5003;43703;51.060;-0.086;2022-12-15T04:59:38;24;23;
57884;PMS5003;43703;51.060;-0.086;2022-12-15T05:01:59;27;24;
57884;PMS5003;43703;51.060;-0.086;2022-12-15T05:04:24;21;20;
57884;PMS5003;43703;51.060;-0.086;2022-12-15T05:06:50;21;21;
57884;PMS5003;43703;51.060;-0.086;2022-12-15T05:09:15;21;21;
57884;PMS5003;43703;51.060;-0.086;2022-12-15T05:11:41;25;22;
57884;PMS5003;43703;51.060;-0.086;2022-12-15T05:14:06;23;21;
57884;PMS5003;43703;51.060;-0.086;2022-12-15T05:16:32;25;25;
57884;PMS5003;43703;51.060;-0.086;2022-12-15T05:18:58;30;25;
57884;PMS5003;43703;51.060;-0.086;2022-12-15T05:21:24;25;23;
57884;PMS5003;43703;51.060;-0.086;2022-12-15T05:23:49;26;22;
57884;PMS5003;43703;51.060;-0.086;2022-12-15T05:26:15;23;21;
57884;PMS5003;43703;51.060;-0.086;2022-12-15T05:28:41;23;21;
57884;PMS5003;43703;51.060;-0.086;2022-12-15T05:31:07;20;17;
57884;PMS5003;43703;51.060;-0.086;2022-12-15T05:33:32;21;20;
57884;PMS5003;43703;51.060;-0.086;2022-12-15T05:35:58;25;23;
57884;PMS5003;43703;51.060;-0.086;2022-12-15T05:38:24;20;20;
57884;PMS5003;43703;51.060;-0.086;2022-12-15T05:40:49;22;22;
57884;PMS5003;43703;51.060;-0.086;2022-12-15T05:43:14;25;24;
57884;PMS5003;43703;51.060;-0.086;2022-12-15T05:45:39;29;24;
57884;PMS5003;43703;51.060;-0.086;2022-12-15T05:48:05;20;20;
57884;PMS5003;43703;51.060;-0.086;2022-12-15T05:50:30;23;23;
57884;PMS5003;43703;51.060;-0.086;2022-12-15T05:52:56;25;25;
57884;PMS5003;43703;51.060;-0.086;2022-12-15T05:55:21;24;24;
57884;PMS5003;43703;51.060;-0.086;2022-12-15T05:57:49;21;19;
57884;PMS5003;43703;51.060;-0.086;2022-12-15T06:00:12;19;17;
57884;PMS5003;43703;51.060;-0.086;2022-12-15T06:02:37;26;25;
57884;PMS5003;43703;51.060;-0.086;2022-12-15T06:05:03;24;22;
57884;PMS5003;43703;51.060;-0.086;2022-12-15T06:07:27;26;24;
57884;PMS5003;43703;51.060;-0.086;2022-12-15T06:09:53;24;22;
57884;PMS5003;43703;51.060;-0.086;2022-12-15T06:12:19;23;21;
57884;PMS5003;43703;51.060;-0.086;2022-12-15T06:14:44;21;21;
57884;PMS5003;43703;51.060;-0.086;2022-12-15T06:17:10;28;24;
57884;PMS5003;43703;51.060;-0.086;2022-12-15T06:19:36;21;19;
57884;PMS5003;43703;51.060;-0.086;2022-12-15T06:22:01;25;23;
57884;PMS5003;43703;51.060;-0.086;2022-12-15T06:24:27;26;24;
57884;PMS5003;43703;51.060;-0.086;2022-12-15T06:26:52;25;21;
57884;PMS5003;43703;51.060;-0.086;2022-12-15T06:29:17;36;25;
57884;PMS5003;43703;51.060;-0.086;2022-12-15T06:31:43;24;23;
57884;PMS5003;43703;51.060;-0.086;2022-12-15T06:34:10;27;27;
57884;PMS5003;43703;51.060;-0.086;2022-12-15T06:36:34;25;24;
57884;PMS5003;43703;51.060;-0.086;2022-12-15T06:39:00;28;24;
57884;PMS5003;43703;51.060;-0.086;2022-12-15T06:41:25;26;26;
57884;PMS5003;43703;51.060;-0.086;2022-12-15T06:43:51;27;22;
57884;PMS5003;43703;51.060;-0.086;2022-12-15T06:46:16;26;24;
57884;PMS5003;43703;51.060;-0.086;2022-12-15T06:48:42;30;26;
57884;PMS5003;43703;51.060;-0.086;2022-12-15T06:51:08;25;25;
57884;PMS5003;43703;51.060;-0.086;2022-12-15T06:53:35;31;26;
57884;PMS5003;43703;51.060;-0.086;2022-12-15T06:56:00;21;21;
57884;PMS5003;43703;51.060;-0.086;2022-12-15T06:58:25;28;27;
57884;PMS5003;43703;51.060;-0.086;2022-12-15T07:00:50;25;25;
57884;PMS5003;43703;51.060;-0.086;2022-12-15T07:03:17;23;21;
57884;PMS5003;43703;51.060;-0.086;2022-12-15T07:05:43;20;19;
57884;PMS5003;43703;51.060;-0.086;2022-12-15T07:08:09;24;24;
57884;PMS5003;43703;51.060;-0.086;2022-12-15T07:10:36;26;25;
57884;PMS5003;43703;51.060;-0.086;2022-12-15T07:12:59;24;24;
57884;PMS5003;43703;51.060;-0.086;2022-12-15T07:15:25;30;28;
57884;PMS5003;43703;51.060;-0.086;2022-12-15T07:17:50;29;29;
57884;PMS5003;43703;51.060;-0.086;2022-12-15T07:20:15;28;28;
57884;PMS5003;43703;51.060;-0.086;2022-12-15T07:22:41;25;23;
57884;PMS5003;43703;51.060;-0.086;2022-12-15T07:25:07;28;24;
57884;PMS5003;43703;51.060;-0.086;2022-12-15T07:27:32;28;26;
57884;PMS5003;43703;51.060;-0.086;2022-12-15T07:29:57;30;26;
57884;PMS5003;43703;51.060;-0.086;2022-12-15T07:32:23;24;24;
57884;PMS5003;43703;51.060;-0.086;2022-12-15T07:34:48;24;24;
57884;PMS5003;43703;51.060;-0.086;2022-12-15T07:37:13;27;25;
57884;PMS5003;43703;51.060;-0.086;2022-12-15T07:39:38;22;22;
57884;PMS5003;43703;51.060;-0.086;2022-12-15T07:42:03;24;22;
57884;PMS5003;43703;51.060;-0.086;2022-12-15T07:44:29;24;23;
57884;PMS5003;43703;51.060;-0.086;2022-12-15T07:46:54;32;29;
57884;PMS5003;43703;51.060;-0.086;2022-12-15T07:49:19;26;24;
57884;PMS5003;43703;51.060;-0.086;2022-12-15T07:51:45;25;24;
57884;PMS5003;43703;51.060;-0.086;2022-12-15T07:54:10;25;24;
57884;PMS5003;43703;51.060;-0.086;2022-12-15T07:56:36;24;22;
57884;PMS5003;43703;51.060;-0.086;2022-12-15T07:59:01;22;20;
57884;PMS5003;43703;51.060;-0.086;2022-12-15T08:01:27;23;23;
57884;PMS5003;43703;51.060;-0.086;2022-12-15T08:03:53;24;21;
57884;PMS5003;43703;51.060;-0.086;2022-12-15T08:06:18;27;24;
57884;PMS5003;43703;51.060;-0.086;2022-12-15T08:08:44;21;20;
57884;PMS5003;43703;51.060;-0.086;2022-12-15T08:11:10;23;20;
57884;PMS5003;43703;51.060;-0.086;2022-12-15T08:13:36;24;22;
57884;PMS5003;43703;51.060;-0.086;2022-12-15T08:16:01;20;19;
57884;PMS5003;43703;51.060;-0.086;2022-12-15T08:18:27;21;21;
57884;PMS5003;43703;51.060;-0.086;2022-12-15T08:20:52;21;21;
57884;PMS5003;43703;51.060;-0.086;2022-12-15T08:23:17;24;23;
57884;PMS5003;43703;51.060;-0.086;2022-12-15T08:25:42;22;22;
57884;PMS5003;43703;51.060;-0.086;2022-12-15T08:28:08;21;20;
57884;PMS5003;43703;51.060;-0.086;2022-12-15T08:30:34;22;20;
57884;PMS5003;43703;51.060;-0.086;2022-12-15T08:32:59;20;19;
57884;PMS5003;43703;51.060;-0.086;2022-12-15T08:35:24;20;20;
57884;PMS5003;43703;51.060;-0.086;2022-12-15T08:37:50;24;22;
57884;PMS5003;43703;51.060;-0.086;2022-12-15T08:40:15;25;22;
57884;PMS5003;43703;51.060;-0.086;2022-12-15T08:42:40;25;21;
57884;PMS5003;43703;51.060;-0.086;2022-12-15T08:45:06;22;22;
57884;PMS5003;43703;51.060;-0.086;2022-12-15T08:47:31;21;21;
57884;PMS5003;43703;51.060;-0.086;2022-12-15T08:49:56;17;17;
57884;PMS5003;43703;51.060;-0.086;2022-12-15T08:52:22;20;18;
57884;PMS5003;43703;51.060;-0.086;2022-12-15T08:54:48;17;14;
57884;PMS5003;43703;51.060;-0.086;2022-12-15T08:57:13;22;17;
57884;PMS5003;43703;51.060;-0.086;2022-12-15T08:59:39;19;18;
57884;PMS5003;43703;51.060;-0.086;2022-12-15T09:02:04;19;18;
57884;PMS5003;43703;51.060;-0.086;2022-12-15T09:04:30;24;22;
57884;PMS5003;43703;51.060;-0.086;2022-12-15T09:06:55;27;23;
57884;PMS5003;43703;51.060;-0.086;2022-12-15T09:09:20;21;21;
57884;PMS5003;43703;51.060;-0.086;2022-12-15T09:11:46;22;22;
57884;PMS5003;43703;51.060;-0.086;2022-12-15T09:14:12;21;21;
57884;PMS5003;43703;51.060;-0.086;2022-12-15T09:16:38;22;19;
57884;PMS5003;43703;51.060;-0.086;2022-12-15T09:19:03;21;19;
57884;PMS5003;43703;51.060;-0.086;2022-12-15T09:21:28;23;21;
57884;PMS5003;43703;51.060;-0.086;2022-12-15T09:23:55;21;20;
57884;PMS5003;43703;51.060;-0.086;2022-12-15T09:26:19;25;21;
57884;PMS5003;43703;51.060;-0.086;2022-12-15T09:28:44;28;25;
57884;PMS5003;43703;51.060;-0.086;2022-12-15T09:31:10;28;28;
57884;PMS5003;43703;51.060;-0.086;2022-12-15T09:33:35;31;28;
57884;PMS5003;43703;51.060;-0.086;2022-12-15T09:36:01;22;22;
57884;PMS5003;43703;51.060;-0.086;2022-12-15T09:38:26;29;26;
57884;PMS5003;43703;51.060;-0.086;2022-12-15T09:40:51;20;19;
57884;PMS5003;43703;51.060;-0.086;2022-12-15T09:43:17;25;24;
57884;PMS5003;43703;51.060;-0.086;2022-12-15T09:45:43;22;20;
57884;PMS5003;43703;51.060;-0.086;2022-12-15T09:48:09;19;19;
57884;PMS5003;43703;51.060;-0.086;2022-12-15T09:50:34;22;22;
57884;PMS5003;43703;51.060;-0.086;2022-12-15T09:52:58;22;17;
57884;PMS5003;43703;51.060;-0.086;2022-12-15T09:55:24;23;23;
57884;PMS5003;43703;51.060;-0.086;2022-12-15T09:57:51;25;23;
57884;PMS5003;43703;51.060;-0.086;2022-12-15T10:00:15;21;21;
57884;PMS5003;43703;51.060;-0.086;2022-12-15T10:02:47;29;23;
57884;PMS5003;43703;51.060;-0.086;2022-12-15T10:05:10;23;21;
57884;PMS5003;43703;51.060;-0.086;2022-12-15T10:07:32;22;21;
57884;PMS5003;43703;51.060;-0.086;2022-12-15T10:09:56;23;21;
57884;PMS5003;43703;51.060;-0.086;2022-12-15T10:12:23;22;21;
57884;PMS5003;43703;51.060;-0.086;2022-12-15T10:14:48;26;25;
57884;PMS5003;43703;51.060;-0.086;2022-12-15T10:17:17;25;20;
57884;PMS5003;43703;51.060;-0.086;2022-12-15T10:19:39;25;24;
57884;PMS5003;43703;51.060;-0.086;2022-12-15T10:22:04;24;23;
57884;PMS5003;43703;51.060;-0.086;2022-12-15T10:24:29;25;24;
57884;PMS5003;43703;51.060;-0.086;2022-12-15T10:26:55;24;24;
57884;PMS5003;43703;51.060;-0.086;2022-12-15T10:29:22;17;17;
57884;PMS5003;43703;51.060;-0.086;2022-12-15T10:31:48;15;14;
57884;PMS5003;43703;51.060;-0.086;2022-12-15T10:34:15;17;15;
57884;PMS5003;43703;51.060;-0.086;2022-12-15T10:36:36;23;18;
57884;PMS5003;43703;51.060;-0.086;2022-12-15T10:39:02;21;18;
57884;PMS5003;43703;51.060;-0.086;2022-12-15T10:41:30;17;17;
57884;PMS5003;43703;51.060;-0.086;2022-12-15T10:43:53;18;18;
57884;PMS5003;43703;51.060;-0.086;2022-12-15T10:46:19;21;18;
57884;PMS5003;43703;51.060;-0.086;2022-12-15T10:48:44;15;15;
57884;PMS5003;43703;51.060;-0.086;2022-12-15T10:51:13;16;16;
57884;PMS5003;43703;51.060;-0.086;2022-12-15T10:53:38;21;18;
57884;PMS5003;43703;51.060;-0.086;2022-12-15T10:56:01;21;18;
57884;PMS5003;43703;51.060;-0.086;2022-12-15T10:58:26;19;18;
57884;PMS5003;43703;51.060;-0.086;2022-12-15T11:01:04;20;18;
57884;PMS5003;43703;51.060;-0.086;2022-12-15T11:03:19;22;19;
57884;PMS5003;43703;51.060;-0.086;2022-12-15T11:05:45;21;19;
57884;PMS5003;43703;51.060;-0.086;2022-12-15T11:08:13;21;20;
57884;PMS5003;43703;51.060;-0.086;2022-12-15T11:10:33;21;20;
57884;PMS5003;43703;51.060;-0.086;2022-12-15T11:13:02;22;22;
57884;PMS5003;43703;51.060;-0.086;2022-12-15T11:17:51;21;21;
57884;PMS5003;43703;51.060;-0.086;2022-12-15T11:20:17;19;18;
57884;PMS5003;43703;51.060;-0.086;2022-12-15T11:22:41;21;18;
57884;PMS5003;43703;51.060;-0.086;2022-12-15T11:25:11;18;18;
57884;PMS5003;43703;51.060;-0.086;2022-12-15T11:27:32;20;18;
57884;PMS5003;43703;51.060;-0.086;2022-12-15T11:30:00;19;16;
57884;PMS5003;43703;51.060;-0.086;2022-12-15T11:32:24;20;20;
57884;PMS5003;43703;51.060;-0.086;2022-12-15T11:34:48;21;21;
57884;PMS5003;43703;51.060;-0.086;2022-12-15T11:37:22;21;19;
57884;PMS5003;43703;51.060;-0.086;2022-12-15T11:39:43;20;20;
57884;PMS5003;43703;51.060;-0.086;2022-12-15T11:42:06;23;20;
57884;PMS5003;43703;51.060;-0.086;2022-12-15T11:44:33;28;25;
57884;PMS5003;43703;51.060;-0.086;2022-12-15T11:47:00;22;20;
57884;PMS5003;43703;51.060;-0.086;2022-12-15T11:49:28;29;26;
57884;PMS5003;43703;51.060;-0.086;2022-12-15T11:51:49;28;25;
57884;PMS5003;43703;51.060;-0.086;2022-12-15T11:54:15;35;31;
57884;PMS5003;43703;51.060;-0.086;2022-12-15T11:56:39;42;36;
57884;PMS5003;43703;51.060;-0.086;2022-12-15T11:59:09;45;42;
57884;PMS5003;43703;51.060;-0.086;2022-12-15T12:01:35;58;53;
57884;PMS5003;43703;51.060;-0.086;2022-12-15T12:03:56;50;50;
57884;PMS5003;43703;51.060;-0.086;2022-12-15T12:06:22;48;43;
57884;PMS5003;43703;51.060;-0.086;2022-12-15T12:08:51;45;43;
57884;PMS5003;43703;51.060;-0.086;2022-12-15T12:11:12;38;38;
57884;PMS5003;43703;51.060;-0.086;2022-12-15T12:13:38;36;36;
57884;PMS5003;43703;51.060;-0.086;2022-12-15T12:16:05;38;38;
57884;PMS5003;43703;51.060;-0.086;2022-12-15T12:18:27;35;33;
57884;PMS5003;43703;51.060;-0.086;2022-12-15T12:20:55;34;33;
57884;PMS5003;43703;51.060;-0.086;2022-12-15T12:23:19;34;31;
57884;PMS5003;43703;51.060;-0.086;2022-12-15T12:25:44;31;31;
57884;PMS5003;43703;51.060;-0.086;2022-12-15T12:28:12;32;29;
57884;PMS5003;43703;51.060;-0.086;2022-12-15T12:30:43;36;31;
57884;PMS5003;43703;51.060;-0.086;2022-12-15T12:33:03;31;28;
57884;PMS5003;43703;51.060;-0.086;2022-12-15T12:35:27;30;29;
57884;PMS5003;43703;51.060;-0.086;2022-12-15T12:37:50;26;26;
57884;PMS5003;43703;51.060;-0.086;2022-12-15T12:40:17;29;29;
57884;PMS5003;43703;51.060;-0.086;2022-12-15T12:42:41;31;30;
57884;PMS5003;43703;51.060;-0.086;2022-12-15T12:45:09;31;29;
57884;PMS5003;43703;51.060;-0.086;2022-12-15T12:47:32;35;31;
57884;PMS5003;43703;51.060;-0.086;2022-12-15T12:49:57;32;28;
57884;PMS5003;43703;51.060;-0.086;2022-12-15T12:52:23;27;26;
57884;PMS5003;43703;51.060;-0.086;2022-12-15T12:54:52;31;30;
57884;PMS5003;43703;51.060;-0.086;2022-12-15T12:59:39;30;29;
57884;PMS5003;43703;51.060;-0.086;2022-12-15T13:06:56;35;32;
57884;PMS5003;43703;51.060;-0.086;2022-12-15T13:09:20;35;34;
57884;PMS5003;43703;51.060;-0.086;2022-12-15T13:14:12;34;34;
57884;PMS5003;43703;51.060;-0.086;2022-12-15T13:16:35;35;32;
57884;PMS5003;43703;51.060;-0.086;2022-12-15T13:19:01;32;32;
57884;PMS5003;43703;51.060;-0.086;2022-12-15T13:23:51;35;33;
57884;PMS5003;43703;51.060;-0.086;2022-12-15T13:26:17;30;30;
57884;PMS5003;43703;51.060;-0.086;2022-12-15T13:28:43;29;26;
57884;PMS5003;43703;51.060;-0.086;2022-12-15T13:31:13;40;35;
57884;PMS5003;43703;51.060;-0.086;2022-12-15T13:33:34;31;31;
57884;PMS5003;43703;51.060;-0.086;2022-12-15T13:35:59;32;29;
57884;PMS5003;43703;51.060;-0.086;2022-12-15T13:38:30;31;31;
57884;PMS5003;43703;51.060;-0.086;2022-12-15T13:40:52;27;26;
57884;PMS5003;43703;51.060;-0.086;2022-12-15T13:45:43;31;28;
57884;PMS5003;43703;51.060;-0.086;2022-12-15T13:48:12;28;27;
57884;PMS5003;43703;51.060;-0.086;2022-12-15T13:50:35;31;26;
57884;PMS5003;43703;51.060;-0.086;2022-12-15T13:53:00;27;27;
57884;PMS5003;43703;51.060;-0.086;2022-12-15T13:55:25;34;32;
57884;PMS5003;43703;51.060;-0.086;2022-12-15T13:57:50;28;25;
57884;PMS5003;43703;51.060;-0.086;2022-12-15T14:00:15;30;27;
57884;PMS5003;43703;51.060;-0.086;2022-12-15T14:02:39;32;29;
57884;PMS5003;43703;51.060;-0.086;2022-12-15T14:05:08;27;27;
57884;PMS5003;43703;51.060;-0.086;2022-12-15T14:07:30;31;31;
57884;PMS5003;43703;51.060;-0.086;2022-12-15T14:09:56;35;32;
57884;PMS5003;43703;51.060;-0.086;2022-12-15T14:12:21;34;31;
57884;PMS5003;43703;51.060;-0.086;2022-12-15T14:14:47;35;32;
57884;PMS5003;43703;51.060;-0.086;2022-12-15T14:17:12;37;34;
57884;PMS5003;43703;51.060;-0.086;2022-12-15T14:19:38;33;31;
57884;PMS5003;43703;51.060;-0.086;2022-12-15T14:24:29;33;32;
57884;PMS5003;43703;51.060;-0.086;2022-12-15T14:26:54;40;39;
57884;PMS5003;43703;51.060;-0.086;2022-12-15T14:29:19;42;40;
57884;PMS5003;43703;51.060;-0.086;2022-12-15T14:31:46;41;38;
57884;PMS5003;43703;51.060;-0.086;2022-12-15T14:34:12;38;36;
57884;PMS5003;43703;51.060;-0.086;2022-12-15T14:36:36;37;37;
57884;PMS5003;43703;51.060;-0.086;2022-12-15T14:39:02;41;37;
57884;PMS5003;43703;51.060;-0.086;2022-12-15T14:41:28;43;40;
57884;PMS5003;43703;51.060;-0.086;2022-12-15T14:43:55;44;40;
57884;PMS5003;43703;51.060;-0.086;2022-12-15T14:46:18;49;43;
57884;PMS5003;43703;51.060;-0.086;2022-12-15T14:48:44;43;41;
57884;PMS5003;43703;51.060;-0.086;2022-12-15T14:51:09;44;39;
57884;PMS5003;43703;51.060;-0.086;2022-12-15T14:53:35;48;45;
57884;PMS5003;43703;51.060;-0.086;2022-12-15T14:58:26;46;43;
57884;PMS5003;43703;51.060;-0.086;2022-12-15T15:00:51;47;46;
57884;PMS5003;43703;51.060;-0.086;2022-12-15T15:03:16;45;42;
57884;PMS5003;43703;51.060;-0.086;2022-12-15T15:05:41;42;42;
57884;PMS5003;43703;51.060;-0.086;2022-12-15T15:08:09;42;40;
57884;PMS5003;43703;51.060;-0.086;2022-12-15T15:10:32;47;45;
57884;PMS5003;43703;51.060;-0.086;2022-12-15T15:12:58;48;47;
57884;PMS5003;43703;51.060;-0.086;2022-12-15T15:15:24;47;46;
57884;PMS5003;43703;51.060;-0.086;2022-12-15T15:17:49;54;48;
57884;PMS5003;43703;51.060;-0.086;2022-12-15T15:20:17;56;48;
57884;PMS5003;43703;51.060;-0.086;2022-12-15T15:22:41;51;47;
57884;PMS5003;43703;51.060;-0.086;2022-12-15T15:27:33;55;53;
57884;PMS5003;43703;51.060;-0.086;2022-12-15T15:32:21;50;49;
57884;PMS5003;43703;51.060;-0.086;2022-12-15T15:34:47;60;54;
57884;PMS5003;43703;51.060;-0.086;2022-12-15T15:37:16;54;50;
57884;PMS5003;43703;51.060;-0.086;2022-12-15T15:39:38;46;44;
57884;PMS5003;43703;51.060;-0.086;2022-12-15T15:42:08;49;49;
57884;PMS5003;43703;51.060;-0.086;2022-12-15T15:44:29;50;46;
57884;PMS5003;43703;51.060;-0.086;2022-12-15T15:46:55;49;46;
57884;PMS5003;43703;51.060;-0.086;2022-12-15T15:49:21;49;47;
57884;PMS5003;43703;51.060;-0.086;2022-12-15T15:51:46;48;46;
57884;PMS5003;43703;51.060;-0.086;2022-12-15T15:54:12;52;47;
57884;PMS5003;43703;51.060;-0.086;2022-12-15T15:56:37;51;51;
57884;PMS5003;43703;51.060;-0.086;2022-12-15T15:59:08;53;52;
57884;PMS5003;43703;51.060;-0.086;2022-12-15T16:01:29;53;49;
57884;PMS5003;43703;51.060;-0.086;2022-12-15T16:03:54;53;47;
57884;PMS5003;43703;51.060;-0.086;2022-12-15T16:06:19;47;46;
57884;PMS5003;43703;51.060;-0.086;2022-12-15T16:08:46;47;45;
57884;PMS5003;43703;51.060;-0.086;2022-12-15T16:11:10;48;48;
57884;PMS5003;43703;51.060;-0.086;2022-12-15T16:13:37;53;47;
57884;PMS5003;43703;51.060;-0.086;2022-12-15T16:16:02;50;50;
57884;PMS5003;43703;51.060;-0.086;2022-12-15T16:18:27;50;47;
57884;PMS5003;43703;51.060;-0.086;2022-12-15T16:20:52;49;46;
57884;PMS5003;43703;51.060;-0.086;2022-12-15T16:23:18;57;53;